This is the latest recevied weather packets stored in our database for station/object AC4AG. If no packets are shown the sender has not sent any weather packets the latest 10 day(s).
| Time | Temp. | Humidity | Pressure | Rain* | Wind** | Luminosity | Snow |
|---|---|---|---|---|---|---|---|
| 1777298430 | 19.44° C | 76% | 1017.3 hPa | 0 mm | - | 432 W/m² | - |
| 1777298127 | 18.89° C | 77% | 1016.9 hPa | 0 mm | - | 314 W/m² | - |
| 1777297827 | 19.44° C | 75% | 1016.8 hPa | 0 mm | - | 389 W/m² | - |
| 1777297525 | 18.89° C | 77% | 1016.7 hPa | 0 mm | - | 388 W/m² | - |
| 1777297221 | 18.33° C | 80% | 1016.7 hPa | 0 mm | - | 424 W/m² | - |
| 1777296919 | 18.33° C | 79% | 1016.7 hPa | 0 mm | - | 249 W/m² | - |
| 1777296616 | 18.33° C | 78% | 1016.7 hPa | 0 mm | - | 354 W/m² | - |
| 1777296285 | 17.78° C | 80% | 1016.6 hPa | 0 mm | - | 230 W/m² | - |
| 1777295982 | 18.33° C | 79% | 1016.4 hPa | 0 mm | - | 262 W/m² | - |
| 1777295679 | 18.33° C | 79% | 1016.6 hPa | 0 mm | - | 341 W/m² | - |
| 1777295376 | 17.78° C | 81% | 1016.5 hPa | 0 mm | - | 328 W/m² | - |
| 1777295074 | 17.22° C | 82% | 1016.7 hPa | 0 mm | - | 288 W/m² | - |
| 1777294771 | 16.67° C | 85% | 1016.7 hPa | 0 mm | - | 254 W/m² | - |
| 1777294466 | 15.56° C | 87% | 1016.7 hPa | 0 mm | - | 227 W/m² | - |
| 1777294163 | 15° C | 88% | 1016.7 hPa | 0 mm | - | 207 W/m² | - |
| 1777293860 | 15° C | 89% | 1016.8 hPa | 0 mm | - | 190 W/m² | - |
| 1777293555 | 15° C | 89% | 1017.1 hPa | 0 mm | - | 176 W/m² | - |
| 1777293251 | 14.44° C | 90% | 1016.9 hPa | 0 mm | - | 155 W/m² | - |
| 1777292950 | 14.44° C | 90% | 1016.8 hPa | 0 mm | - | 142 W/m² | - |
| 1777292646 | 13.89° C | 90% | 1016.8 hPa | 0 mm | - | 135 W/m² | - |
| 1777292342 | 13.89° C | 91% | 1016.9 hPa | 0 mm | - | 126 W/m² | - |
| 1777292038 | 13.89° C | 91% | 1016.9 hPa | 0 mm | - | 117 W/m² | - |
| 1777291735 | 13.33° C | 93% | 1016.9 hPa | 0 mm | - | 107 W/m² | - |
| 1777291431 | 13.33° C | 95% | 1016.9 hPa | 0 mm | - | 98 W/m² | - |
| 1777291128 | 12.78° C | 95% | 1016.9 hPa | 0 mm | - | 89 W/m² | - |
* Rain latest hour (hover to see other rain measurements)
** Current wind speed in m/s (hover to see current wind gust speed)